Pernille — 5BNZ2 — position and weather

sailwx.info

Track history (hours):
 
Tides and Currents Weather Stations Pressure Air Temp Water Temp Dewpoint Dewpoint Depression Visibility Wind Speed Wind Dir Waves Ship Positions

Pernille

Last reported at 2017-Mar-25 15:33 UTC. Time now 2017-Mar-25 15:47 UTC.
Position N 58°43' E 010°03'.

Length 83 m; draft 5.5 m.

Type: Cargo ship. MMSI: 212662000.

Date/timePositionNaut miles runAvg speedWind from/ knotsBaromVisibWave heightAir tempDewpointWater temp
2017-Mar-25 15:33N 58°43' E 010°03'27 8.9
2017-Mar-25 12:33N 58°20' E 010°29'8 7.8
2017-Mar-25 11:33N 58°13' E 010°36'9 9.0
2017-Mar-25 10:32N 58°05' E 010°45'9 9.3
2017-Mar-25 09:33N 57°58' E 010°55'9 9.1
2017-Mar-25 08:33N 57°50' E 011°03'9 9.2
2017-Mar-25 07:33N 57°42' E 011°11'9 9.4
2017-Mar-25 06:33N 57°34' E 011°20'10 9.8
2017-Mar-25 05:33N 57°25' E 011°29'1010.1
2017-Mar-25 04:33N 57°15' E 011°34'71 9.8
2017-Mar-24 21:17N 56°10' E 012°27'811.2
2017-Mar-24 20:33N 56°05' E 012°37'1111.2
2017-Mar-24 19:33N 55°54' E 012°44'1111.3
2017-Mar-24 18:33N 55°43' E 012°41'1111.3
2017-Mar-24 17:33N 55°32' E 012°43'1110.7
2017-Mar-24 16:33N 55°21' E 012°41'9 9.4
2017-Mar-24 15:33N 55°16' E 012°55'1110.6
2017-Mar-24 14:32N 55°15' E 013°14'1210.6
2017-Mar-24 13:26N 55°15' E 013°35'1010.7
2017-Mar-24 12:32N 55°14' E 013°51'1111.0
2017-Mar-24 11:33N 55°13' E 014°10'1010.2
2017-Mar-24 10:33N 55°19' E 014°25'1110.7
2017-Mar-24 09:33N 55°27' E 014°38'1010.3
2017-Mar-24 08:33N 55°33' E 014°53'1010.2
2017-Mar-24 07:33N 55°38' E 015°09'1110.6
2017-Mar-24 06:33N 55°43' E 015°25'1110.6
2017-Mar-24 05:33N 55°48' E 015°42'1110.8
2017-Mar-24 04:33N 55°54' E 015°58'1110.8
2017-Mar-24 03:33N 55°59' E 016°15'1110.7
2017-Mar-24 02:33N 56°04' E 016°31'1010.4
2017-Mar-24 01:33N 56°11' E 016°45'1110.7
2017-Mar-24 00:33N 56°21' E 016°52'  
Track history (hours):
 
Tides and Currents Weather Stations Pressure Air Temp Water Temp Dewpoint Dewpoint Depression Visibility Wind Speed Wind Dir Waves Ship Positions

Pernille

Last reported at 2017-Mar-25 15:33 UTC. Time now 2017-Mar-25 15:47 UTC.
Position N 58°43' E 010°03'.

Length 83 m; draft 5.5 m.

Type: Cargo ship. MMSI: 212662000.

Date/timePositionNaut miles runAvg speedWind from/ knotsBaromVisibWave heightAir tempDewpointWater temp
2017-Mar-25 15:33N 58°43' E 010°03'27 8.9
2017-Mar-25 12:33N 58°20' E 010°29'8 7.8
2017-Mar-25 11:33N 58°13' E 010°36'9 9.0
2017-Mar-25 10:32N 58°05' E 010°45'9 9.3
2017-Mar-25 09:33N 57°58' E 010°55'9 9.1
2017-Mar-25 08:33N 57°50' E 011°03'9 9.2
2017-Mar-25 07:33N 57°42' E 011°11'9 9.4
2017-Mar-25 06:33N 57°34' E 011°20'10 9.8
2017-Mar-25 05:33N 57°25' E 011°29'1010.1
2017-Mar-25 04:33N 57°15' E 011°34'71 9.8
2017-Mar-24 21:17N 56°10' E 012°27'811.2
2017-Mar-24 20:33N 56°05' E 012°37'1111.2
2017-Mar-24 19:33N 55°54' E 012°44'1111.3
2017-Mar-24 18:33N 55°43' E 012°41'1111.3
2017-Mar-24 17:33N 55°32' E 012°43'1110.7
2017-Mar-24 16:33N 55°21' E 012°41'9 9.4
2017-Mar-24 15:33N 55°16' E 012°55'1110.6
2017-Mar-24 14:32N 55°15' E 013°14'1210.6
2017-Mar-24 13:26N 55°15' E 013°35'1010.7
2017-Mar-24 12:32N 55°14' E 013°51'1111.0
2017-Mar-24 11:33N 55°13' E 014°10'1010.2
2017-Mar-24 10:33N 55°19' E 014°25'1110.7
2017-Mar-24 09:33N 55°27' E 014°38'1010.3
2017-Mar-24 08:33N 55°33' E 014°53'1010.2
2017-Mar-24 07:33N 55°38' E 015°09'1110.6
2017-Mar-24 06:33N 55°43' E 015°25'1110.6
2017-Mar-24 05:33N 55°48' E 015°42'1110.8
2017-Mar-24 04:33N 55°54' E 015°58'1110.8
2017-Mar-24 03:33N 55°59' E 016°15'1110.7
2017-Mar-24 02:33N 56°04' E 016°31'1010.4
2017-Mar-24 01:33N 56°11' E 016°45'1110.7
2017-Mar-24 00:33N 56°21' E 016°52'  

Dump ship's entire track history